createdAt,value
2023-01-28T00:01:15.256Z,16.53
2023-01-28T00:03:43.035Z,15.57
2023-01-28T00:06:13.205Z,16.50
2023-01-28T00:08:40.764Z,14.80
2023-01-28T00:11:09.174Z,17.03
2023-01-28T00:13:36.175Z,16.17
2023-01-28T00:16:06.081Z,16.47
2023-01-28T00:18:33.820Z,16.90
2023-01-28T00:21:03.005Z,16.87
2023-01-28T00:23:32.699Z,17.57
2023-01-28T00:26:00.899Z,16.33
2023-01-28T00:28:28.380Z,14.87
2023-01-28T00:30:55.633Z,16.00
2023-01-28T00:33:22.866Z,16.33
2023-01-28T00:35:59.443Z,14.63
2023-01-28T00:38:26.957Z,15.53
2023-01-28T00:40:54.444Z,16.07
2023-01-28T00:43:21.937Z,16.00
2023-01-28T00:45:50.296Z,15.67
2023-01-28T00:48:17.621Z,16.00
2023-01-28T00:50:45.724Z,16.27
2023-01-28T00:53:12.647Z,15.53
2023-01-28T00:55:39.567Z,16.30
2023-01-28T00:58:06.561Z,16.17
2023-01-28T01:00:33.557Z,15.40
2023-01-28T01:03:00.808Z,16.93
2023-01-28T01:05:29.770Z,15.70
2023-01-28T01:07:56.844Z,15.20
2023-01-28T01:10:23.822Z,16.23
2023-01-28T01:12:51.198Z,16.37
2023-01-28T01:15:19.492Z,16.53
2023-01-28T01:17:48.726Z,14.87
2023-01-28T01:20:21.390Z,15.17
2023-01-28T01:22:48.365Z,17.03
2023-01-28T01:25:17.518Z,14.80
2023-01-28T01:27:47.942Z,15.63
2023-01-28T01:30:16.090Z,16.17
2023-01-28T01:32:43.046Z,17.37
2023-01-28T01:35:10.945Z,15.93
2023-01-28T01:37:37.993Z,15.07
2023-01-28T01:40:09.528Z,15.57
2023-01-28T01:42:36.522Z,16.07
2023-01-28T01:45:13.022Z,16.20
2023-01-28T01:47:48.706Z,15.00
2023-01-28T01:50:50.448Z,15.33
2023-01-28T01:53:21.157Z,15.30
2023-01-28T01:55:50.915Z,15.83
2023-01-28T01:58:22.237Z,15.60
2023-01-28T02:00:49.397Z,15.23
2023-01-28T02:03:20.179Z,16.03
2023-01-28T02:05:49.524Z,16.23
2023-01-28T02:08:22.620Z,16.33
2023-01-28T02:11:01.522Z,16.17
2023-01-28T02:13:36.721Z,15.83
2023-01-28T02:16:07.490Z,15.90
2023-01-28T02:18:35.166Z,17.47
2023-01-28T02:21:20.447Z,15.50
2023-01-28T02:23:56.822Z,15.07
2023-01-28T02:26:23.805Z,16.30
2023-01-28T02:29:02.735Z,15.37
2023-01-28T02:31:43.236Z,15.03
2023-01-28T02:34:38.881Z,15.53
2023-01-28T02:37:21.579Z,15.13
2023-01-28T02:40:08.292Z,15.40
2023-01-28T02:42:38.555Z,15.30
2023-01-28T02:45:22.618Z,15.47
2023-01-28T02:47:59.110Z,15.43
2023-01-28T02:50:59.329Z,15.17
2023-01-28T02:53:46.638Z,15.20
2023-01-28T02:56:45.613Z,15.60
2023-01-28T02:59:57.373Z,15.77
2023-01-28T03:02:33.950Z,14.90
2023-01-28T03:05:06.566Z,14.57
2023-01-28T03:07:37.976Z,14.37
2023-01-28T03:10:11.813Z,14.30
2023-01-28T03:13:00.543Z,14.40
2023-01-28T03:15:53.906Z,14.73
2023-01-28T03:18:43.967Z,14.53
2023-01-28T03:21:47.611Z,14.30
2023-01-28T03:24:41.244Z,14.10
2023-01-28T03:27:32.679Z,14.77
2023-01-28T03:30:22.104Z,14.03
2023-01-28T03:33:09.430Z,14.47
2023-01-28T03:35:55.648Z,15.03
2023-01-28T03:38:23.225Z,14.03
2023-01-28T03:40:57.327Z,12.33
2023-01-28T03:43:24.928Z,14.17
2023-01-28T03:45:52.614Z,14.13
2023-01-28T03:48:20.881Z,13.53
2023-01-28T03:50:48.524Z,14.17
2023-01-28T03:53:19.723Z,14.80
2023-01-28T03:55:48.760Z,14.30
2023-01-28T03:58:16.923Z,12.53
2023-01-28T04:00:45.211Z,13.00
2023-01-28T04:03:17.330Z,12.10
2023-01-28T04:06:06.080Z,12.83
2023-01-28T04:08:33.285Z,13.33
2023-01-28T04:11:21.002Z,12.83
2023-01-28T04:13:49.229Z,12.10
2023-01-28T04:16:17.854Z,12.70
2023-01-28T04:18:45.926Z,12.67
2023-01-28T04:21:13.204Z,12.13
2023-01-28T04:23:40.366Z,12.60
2023-01-28T04:26:07.604Z,12.83
2023-01-28T04:28:34.647Z,12.37
2023-01-28T04:31:01.825Z,11.83
2023-01-28T04:33:29.005Z,12.67
2023-01-28T04:35:56.131Z,13.20
2023-01-28T04:38:23.244Z,21.67
2023-01-28T04:40:51.849Z,19.00
2023-01-28T04:43:20.208Z,12.43
2023-01-28T04:45:48.320Z,12.43
2023-01-28T04:48:17.146Z,11.77
2023-01-28T04:50:45.828Z,11.67
2023-01-28T04:53:13.282Z,11.90
2023-01-28T04:55:40.611Z,12.40
2023-01-28T04:58:07.689Z,12.30
2023-01-28T05:00:34.674Z,11.57
2023-01-28T05:03:01.729Z,11.83
2023-01-28T05:05:28.841Z,10.83
2023-01-28T05:07:57.485Z,11.57
2023-01-28T05:10:25.767Z,10.60
2023-01-28T05:12:53.010Z,12.70
2023-01-28T05:15:20.980Z,15.03
2023-01-28T05:17:48.099Z,17.03
2023-01-28T05:20:15.489Z,15.90
2023-01-28T05:22:43.124Z,12.70
2023-01-28T05:25:10.530Z,11.70
2023-01-28T05:27:37.687Z,10.53
2023-01-28T05:30:06.778Z,11.93
2023-01-28T05:32:34.305Z,11.23
2023-01-28T05:35:01.668Z,15.57
2023-01-28T05:37:28.641Z,17.40
2023-01-28T05:39:55.692Z,15.20
2023-01-28T05:42:22.847Z,11.50
2023-01-28T05:44:49.844Z,11.70
2023-01-28T05:47:17.015Z,10.80
2023-01-28T05:49:44.128Z,11.17
2023-01-28T05:52:14.285Z,20.07
2023-01-28T05:54:41.325Z,18.23
2023-01-28T05:57:08.446Z,14.97
2023-01-28T05:59:35.562Z,17.80
2023-01-28T06:02:02.552Z,13.50
2023-01-28T06:04:29.534Z,12.40
2023-01-28T06:06:56.526Z,12.33
2023-01-28T06:09:23.652Z,16.97
2023-01-28T06:11:51.119Z,10.97
2023-01-28T06:14:18.368Z,11.07
2023-01-28T06:16:45.687Z,10.13
2023-01-28T06:19:12.783Z,11.77
2023-01-28T06:21:39.805Z,12.20
2023-01-28T06:24:06.916Z,11.00
2023-01-28T06:26:33.926Z,10.87
2023-01-28T06:29:01.337Z,11.30
2023-01-28T06:31:28.332Z,11.23
2023-01-28T06:33:55.445Z,11.27
2023-01-28T06:36:22.725Z,11.30
2023-01-28T06:38:49.613Z,10.13
2023-01-28T06:41:16.521Z,11.27
2023-01-28T06:43:43.647Z,11.03
2023-01-28T06:46:10.804Z,11.30
2023-01-28T06:48:37.766Z,10.80
2023-01-28T06:51:05.563Z,11.43
2023-01-28T06:53:32.591Z,11.83
2023-01-28T06:55:59.609Z,11.03
2023-01-28T06:58:26.604Z,11.10
2023-01-28T07:00:54.286Z,10.33
2023-01-28T07:03:21.539Z,11.37
2023-01-28T07:05:48.682Z,11.27
2023-01-28T07:08:15.679Z,11.03
2023-01-28T07:10:44.002Z,11.53
2023-01-28T07:13:11.327Z,12.60
2023-01-28T07:15:38.404Z,10.50
2023-01-28T07:18:05.608Z,9.83
2023-01-28T07:20:32.535Z,9.37
2023-01-28T07:22:59.584Z,9.83
2023-01-28T07:25:26.607Z,11.40
2023-01-28T07:27:54.044Z,11.73
2023-01-28T07:30:22.426Z,10.03
2023-01-28T07:32:54.680Z,11.13
2023-01-28T07:35:22.002Z,10.77
2023-01-28T07:37:57.242Z,11.93
2023-01-28T07:40:25.424Z,10.87
2023-01-28T07:42:53.505Z,10.43
2023-01-28T07:45:20.509Z,10.23
2023-01-28T07:47:58.443Z,9.63
2023-01-28T07:50:26.851Z,10.40
2023-01-28T07:52:53.816Z,10.20
2023-01-28T07:55:20.858Z,10.30
2023-01-28T07:57:53.215Z,10.70
2023-01-28T08:00:22.523Z,10.73
2023-01-28T08:02:50.204Z,11.60
2023-01-28T08:05:19.611Z,10.57
2023-01-28T08:07:48.811Z,12.97
2023-01-28T08:10:19.758Z,12.00
2023-01-28T08:12:59.065Z,10.57
2023-01-28T08:15:26.574Z,11.20
2023-01-28T08:17:58.861Z,10.00
2023-01-28T08:20:28.445Z,10.13
2023-01-28T08:23:15.434Z,10.80
2023-01-28T08:25:42.924Z,11.47
2023-01-28T08:28:11.176Z,11.10
2023-01-28T08:30:39.203Z,10.83
2023-01-28T08:33:08.305Z,10.10
2023-01-28T08:35:36.051Z,10.50
2023-01-28T08:38:04.844Z,10.33
2023-01-28T08:40:32.491Z,10.00
2023-01-28T08:42:59.545Z,10.27
2023-01-28T08:45:28.728Z,10.60
2023-01-28T08:48:04.489Z,10.60
2023-01-28T08:50:34.176Z,10.33
2023-01-28T08:53:06.923Z,10.77
2023-01-28T08:55:34.824Z,10.90
2023-01-28T08:58:08.692Z,9.93
2023-01-28T09:00:36.499Z,10.43
2023-01-28T09:03:06.134Z,9.77
2023-01-28T09:05:34.769Z,10.50
2023-01-28T09:08:10.503Z,9.93
2023-01-28T09:10:38.517Z,11.13
2023-01-28T09:13:14.511Z,10.77
2023-01-28T09:15:42.489Z,11.43
2023-01-28T09:18:10.017Z,10.93
2023-01-28T09:20:38.005Z,12.00
2023-01-28T09:23:05.382Z,11.57
2023-01-28T09:25:32.766Z,10.47
2023-01-28T09:27:59.892Z,11.13
2023-01-28T09:30:27.961Z,10.67
2023-01-28T09:32:56.643Z,10.10
2023-01-28T09:35:23.951Z,10.53
2023-01-28T09:37:52.167Z,11.53
2023-01-28T09:40:31.923Z,11.03
2023-01-28T09:43:07.007Z,11.73
2023-01-28T09:45:55.913Z,12.63
2023-01-28T09:48:36.241Z,10.80
2023-01-28T09:51:04.231Z,10.83
2023-01-28T09:53:34.860Z,10.80
2023-01-28T09:56:07.055Z,11.23
2023-01-28T09:58:34.121Z,10.67
2023-01-28T10:01:12.953Z,11.33
2023-01-28T10:03:59.596Z,12.13
2023-01-28T10:06:46.288Z,10.87
2023-01-28T10:10:23.600Z,11.63
2023-01-28T10:13:16.762Z,11.23
2023-01-28T10:15:59.964Z,10.97
2023-01-28T10:18:52.339Z,10.87
2023-01-28T10:21:33.565Z,11.63
2023-01-28T10:24:08.957Z,12.30
2023-01-28T10:26:40.445Z,11.13
2023-01-28T10:29:20.569Z,11.30
2023-01-28T10:32:00.356Z,12.00
2023-01-28T10:34:27.568Z,11.50
2023-01-28T10:36:55.843Z,10.90
2023-01-28T10:39:25.402Z,11.20
2023-01-28T10:41:58.300Z,10.93
2023-01-28T10:44:35.884Z,11.67
2023-01-28T10:47:10.445Z,11.33
2023-01-28T10:49:43.982Z,12.17
2023-01-28T10:52:14.983Z,11.47
2023-01-28T10:54:42.046Z,10.73
2023-01-28T10:57:18.732Z,10.03
2023-01-28T10:59:45.931Z,9.03
2023-01-28T11:02:33.280Z,10.10
2023-01-28T11:05:05.167Z,9.60
2023-01-28T11:07:32.139Z,11.37
2023-01-28T11:09:59.191Z,10.53
2023-01-28T11:12:30.923Z,12.03
2023-01-28T11:14:59.128Z,10.83
2023-01-28T11:17:32.275Z,11.10
2023-01-28T11:20:09.121Z,11.90
2023-01-28T11:22:43.734Z,11.20
2023-01-28T11:25:32.852Z,11.03
2023-01-28T11:28:03.242Z,11.20
2023-01-28T11:30:34.713Z,11.57
2023-01-28T11:33:18.612Z,10.77
2023-01-28T11:36:05.164Z,11.23
2023-01-28T11:38:32.083Z,10.73
2023-01-28T11:41:01.407Z,11.50
2023-01-28T11:43:32.328Z,11.87
2023-01-28T11:46:04.981Z,10.53
2023-01-28T11:48:52.560Z,10.00
2023-01-28T11:51:44.127Z,11.20
2023-01-28T11:54:41.564Z,10.73
2023-01-28T11:57:27.336Z,11.70
2023-01-28T12:00:25.284Z,12.63
2023-01-28T12:03:14.335Z,10.30
2023-01-28T12:05:44.242Z,9.87
2023-01-28T12:08:38.602Z,10.67
2023-01-28T12:11:19.119Z,10.63
2023-01-28T12:14:33.363Z,11.70
2023-01-28T12:17:16.527Z,9.97
2023-01-28T12:19:49.486Z,9.67
2023-01-28T12:22:43.124Z,9.93
2023-01-28T12:25:13.012Z,9.23
2023-01-28T12:27:57.927Z,9.53
2023-01-28T12:30:39.364Z,9.43
2023-01-28T12:33:42.449Z,9.93
2023-01-28T12:36:27.764Z,8.80
2023-01-28T12:39:48.240Z,9.90
2023-01-28T12:42:54.250Z,9.40
2023-01-28T12:45:34.707Z,8.27
2023-01-28T12:48:09.895Z,8.33
2023-01-28T12:50:49.957Z,9.23
2023-01-28T12:53:30.049Z,8.70
2023-01-28T12:56:17.045Z,10.03
2023-01-28T12:58:56.782Z,10.00
2023-01-28T13:01:38.178Z,9.43
2023-01-28T13:04:25.684Z,9.07
2023-01-28T13:07:20.802Z,9.03
2023-01-28T13:09:55.095Z,9.63
2023-01-28T13:12:42.285Z,9.07
2023-01-28T13:15:18.174Z,9.53
2023-01-28T13:18:49.453Z,10.13
2023-01-28T13:21:47.624Z,10.10
2023-01-28T13:24:16.915Z,10.33
2023-01-28T13:26:45.161Z,11.47
2023-01-28T13:29:14.773Z,10.57
2023-01-28T13:31:44.864Z,11.17
2023-01-28T13:34:37.645Z,11.97
2023-01-28T13:37:07.201Z,12.40
2023-01-28T13:39:36.525Z,12.87
2023-01-28T13:42:23.693Z,11.77
2023-01-28T13:44:51.440Z,12.30
2023-01-28T13:47:26.606Z,11.43
2023-01-28T13:49:58.006Z,12.30
2023-01-28T13:52:45.724Z,12.13
2023-01-28T13:55:12.916Z,11.80
2023-01-28T13:58:04.567Z,12.27
2023-01-28T14:01:14.896Z,11.93
2023-01-28T14:03:56.884Z,12.40
2023-01-28T14:06:50.456Z,13.07
2023-01-28T14:09:34.284Z,13.13
2023-01-28T14:12:42.641Z,12.10
2023-01-28T14:15:33.514Z,12.47
2023-01-28T14:18:00.927Z,12.20
2023-01-28T14:20:39.803Z,12.47
2023-01-28T14:23:19.121Z,12.83
2023-01-28T14:26:04.608Z,12.37
2023-01-28T14:29:01.809Z,10.40
2023-01-28T14:31:39.480Z,12.60
2023-01-28T14:34:28.231Z,13.20
2023-01-28T14:36:59.882Z,13.27
2023-01-28T14:39:30.266Z,12.87
2023-01-28T14:42:00.767Z,13.40
2023-01-28T14:44:31.866Z,11.97
2023-01-28T14:47:26.602Z,12.43
2023-01-28T14:50:35.450Z,12.63
2023-01-28T14:53:20.731Z,12.40
2023-01-28T14:55:57.487Z,11.73
2023-01-28T14:58:35.804Z,12.70
2023-01-28T15:01:02.934Z,11.73
2023-01-28T15:03:31.040Z,13.10
2023-01-28T15:06:26.205Z,12.23
2023-01-28T15:08:54.131Z,12.30
2023-01-28T15:11:25.016Z,12.73
2023-01-28T15:13:57.084Z,13.00
2023-01-28T15:16:31.810Z,13.03
2023-01-28T15:19:01.540Z,13.47
2023-01-28T15:21:30.409Z,12.37
2023-01-28T15:24:00.444Z,11.10
2023-01-28T15:26:35.006Z,12.03
2023-01-28T15:29:02.053Z,12.60
2023-01-28T15:31:35.191Z,12.87
2023-01-28T15:34:20.364Z,13.20
2023-01-28T15:36:49.910Z,12.00
2023-01-28T15:39:22.607Z,11.30
2023-01-28T15:41:57.093Z,11.70
2023-01-28T15:44:29.444Z,12.17
2023-01-28T15:46:59.283Z,12.47
2023-01-28T15:49:35.563Z,12.53
2023-01-28T15:52:02.922Z,12.50
2023-01-28T15:54:31.080Z,11.60
2023-01-28T15:57:08.241Z,12.17
2023-01-28T15:59:35.324Z,11.50
2023-01-28T16:02:22.291Z,12.30
2023-01-28T16:05:03.207Z,12.83
2023-01-28T16:07:33.342Z,12.53
2023-01-28T16:10:03.049Z,13.33
2023-01-28T16:12:30.130Z,12.90
2023-01-28T16:15:02.526Z,11.97
2023-01-28T16:17:46.389Z,12.27
2023-01-28T16:20:25.403Z,12.00
2023-01-28T16:23:04.427Z,11.73
2023-01-28T16:25:34.315Z,13.13
2023-01-28T16:28:02.691Z,11.17
2023-01-28T16:30:30.367Z,12.63
2023-01-28T16:32:58.460Z,12.20
2023-01-28T16:35:42.673Z,13.00
2023-01-28T16:38:18.834Z,11.90
2023-01-28T16:40:47.443Z,12.03
2023-01-28T16:43:16.307Z,11.77
2023-01-28T16:45:43.999Z,12.23
2023-01-28T16:48:11.108Z,12.47
2023-01-28T16:50:41.153Z,12.97
2023-01-28T16:53:28.325Z,13.17
2023-01-28T16:55:56.213Z,11.80
2023-01-28T16:58:25.736Z,12.33
2023-01-28T17:00:53.344Z,12.00
2023-01-28T17:03:20.445Z,14.10
2023-01-28T17:05:47.416Z,11.63
2023-01-28T17:08:14.551Z,12.40
2023-01-28T17:10:41.730Z,12.10
2023-01-28T17:13:08.786Z,13.07
2023-01-28T17:15:36.682Z,13.70
2023-01-28T17:18:03.725Z,14.13
2023-01-28T17:20:37.487Z,13.03
2023-01-28T17:23:07.151Z,12.13
2023-01-28T17:25:38.315Z,12.40
2023-01-28T17:28:06.378Z,11.07
2023-01-28T17:30:33.647Z,11.87
2023-01-28T17:33:00.967Z,12.07
2023-01-28T17:35:27.921Z,11.57
2023-01-28T17:37:55.737Z,11.90
2023-01-28T17:40:23.418Z,11.27
2023-01-28T17:42:50.332Z,13.13
2023-01-28T17:45:17.922Z,13.07
2023-01-28T17:47:45.215Z,11.97
2023-01-28T17:50:12.267Z,11.70
2023-01-28T17:52:41.111Z,16.87
2023-01-28T17:55:10.570Z,14.17
2023-01-28T17:57:37.763Z,12.87
2023-01-28T18:00:06.366Z,13.57
2023-01-28T18:02:34.143Z,13.13
2023-01-28T18:05:01.185Z,12.27
2023-01-28T18:07:28.292Z,20.80
2023-01-28T18:09:55.420Z,19.33
2023-01-28T18:12:22.450Z,13.97
2023-01-28T18:14:49.403Z,12.90
2023-01-28T18:17:16.387Z,12.60
2023-01-28T18:19:43.383Z,11.97
2023-01-28T18:22:10.373Z,13.23
2023-01-28T18:24:37.288Z,12.53
2023-01-28T18:27:04.688Z,12.67
2023-01-28T18:29:32.085Z,12.00
2023-01-28T18:31:59.848Z,13.23
2023-01-28T18:34:29.608Z,12.17
2023-01-28T18:36:57.358Z,11.83
2023-01-28T18:39:30.379Z,11.63
2023-01-28T18:41:58.841Z,12.00
2023-01-28T18:44:27.995Z,13.23
2023-01-28T18:46:54.962Z,13.53
2023-01-28T18:49:22.688Z,12.60
2023-01-28T18:51:50.210Z,14.03
2023-01-28T18:54:17.258Z,14.57
2023-01-28T18:56:44.707Z,12.67
2023-01-28T18:59:14.085Z,12.53
2023-01-28T19:01:42.756Z,13.20
2023-01-28T19:04:10.615Z,13.50
2023-01-28T19:06:37.921Z,12.87
2023-01-28T19:09:09.094Z,12.47
2023-01-28T19:11:37.964Z,12.13
2023-01-28T19:14:05.206Z,13.10
2023-01-28T19:16:37.420Z,13.20
2023-01-28T19:19:04.845Z,13.07
2023-01-28T19:21:33.896Z,12.43
2023-01-28T19:24:03.879Z,12.00
2023-01-28T19:26:31.731Z,13.00
2023-01-28T19:28:59.309Z,13.83
2023-01-28T19:31:27.920Z,12.60
2023-01-28T19:34:01.301Z,12.57
2023-01-28T19:36:30.070Z,11.97
2023-01-28T19:38:59.350Z,12.87
2023-01-28T19:41:28.269Z,13.70
2023-01-28T19:43:56.447Z,13.97
2023-01-28T19:46:23.558Z,15.03
2023-01-28T19:48:50.620Z,16.50
2023-01-28T19:51:17.935Z,16.70
2023-01-28T19:53:45.692Z,18.20
2023-01-28T19:56:15.729Z,15.10
2023-01-28T19:58:44.447Z,15.80
2023-01-28T20:01:14.265Z,15.37
2023-01-28T20:03:41.611Z,14.77
2023-01-28T20:06:12.239Z,13.60
2023-01-28T20:08:39.483Z,13.83
2023-01-28T20:11:13.368Z,13.50
2023-01-28T20:13:42.219Z,13.97
2023-01-28T20:16:19.492Z,13.43
2023-01-28T20:18:55.977Z,12.53
2023-01-28T20:21:23.806Z,12.20
2023-01-28T20:23:52.999Z,13.70
2023-01-28T20:26:22.691Z,13.90
2023-01-28T20:28:50.846Z,13.33
2023-01-28T20:31:19.220Z,13.70
2023-01-28T20:33:47.173Z,13.60
2023-01-28T20:36:23.034Z,13.27
2023-01-28T20:38:50.085Z,13.87
2023-01-28T20:41:20.486Z,14.23
2023-01-28T20:43:48.733Z,13.67
2023-01-28T20:46:21.429Z,13.77
2023-01-28T20:48:49.696Z,14.13
2023-01-28T20:51:19.854Z,13.37
2023-01-28T20:53:48.296Z,12.33
2023-01-28T20:56:17.530Z,13.63
2023-01-28T20:58:44.999Z,12.63
2023-01-28T21:01:19.772Z,12.20
2023-01-28T21:03:47.525Z,12.07
2023-01-28T21:06:14.765Z,12.33
2023-01-28T21:08:42.546Z,13.20
2023-01-28T21:11:10.324Z,12.53
2023-01-28T21:13:37.331Z,14.17
2023-01-28T21:16:04.816Z,12.03
2023-01-28T21:18:32.257Z,13.77
2023-01-28T21:21:14.926Z,14.07
2023-01-28T21:23:42.373Z,13.67
2023-01-28T21:26:11.451Z,12.60
2023-01-28T21:28:38.785Z,13.63
2023-01-28T21:31:11.287Z,12.23
2023-01-28T21:33:38.686Z,13.03
2023-01-28T21:36:13.689Z,12.90
2023-01-28T21:38:41.651Z,13.87
2023-01-28T21:41:09.656Z,13.97
2023-01-28T21:43:37.717Z,13.83
2023-01-28T21:46:05.553Z,13.37
2023-01-28T21:48:32.632Z,12.83
2023-01-28T21:51:26.005Z,14.07
2023-01-28T21:53:53.935Z,11.77
2023-01-28T21:56:21.099Z,11.70
2023-01-28T21:59:06.924Z,10.83
2023-01-28T22:01:34.248Z,12.50
2023-01-28T22:04:01.332Z,13.90
2023-01-28T22:06:28.354Z,13.20
2023-01-28T22:08:55.859Z,11.83
2023-01-28T22:11:22.964Z,11.73
2023-01-28T22:13:50.051Z,11.83
2023-01-28T22:16:17.802Z,12.63
2023-01-28T22:18:46.842Z,13.13
2023-01-28T22:21:15.079Z,12.17
2023-01-28T22:23:42.443Z,13.37
2023-01-28T22:26:09.533Z,12.40
2023-01-28T22:28:39.208Z,11.93
2023-01-28T22:31:15.277Z,12.07
2023-01-28T22:33:42.979Z,12.63
2023-01-28T22:36:14.011Z,12.23
2023-01-28T22:38:43.486Z,11.87
2023-01-28T22:41:13.780Z,10.43
2023-01-28T22:43:41.967Z,12.20
2023-01-28T22:46:10.505Z,11.90
2023-01-28T22:48:39.771Z,12.03
2023-01-28T22:51:10.523Z,11.47
2023-01-28T22:53:37.491Z,11.90
2023-01-28T22:56:04.736Z,10.93
2023-01-28T22:58:32.370Z,11.50
2023-01-28T23:00:59.809Z,11.30
2023-01-28T23:03:26.976Z,12.37
2023-01-28T23:06:01.772Z,11.40
2023-01-28T23:08:29.424Z,11.33
2023-01-28T23:11:00.093Z,13.17
2023-01-28T23:13:48.777Z,11.30
2023-01-28T23:16:34.172Z,11.27
2023-01-28T23:19:19.818Z,10.30
2023-01-28T23:22:05.669Z,11.27
2023-01-28T23:24:33.722Z,11.10
2023-01-28T23:27:03.169Z,10.97
2023-01-28T23:29:31.787Z,12.40
2023-01-28T23:32:05.415Z,12.20
2023-01-28T23:34:37.422Z,11.73
2023-01-28T23:37:06.730Z,10.93
2023-01-28T23:39:34.373Z,11.53
2023-01-28T23:42:16.135Z,11.43
2023-01-28T23:44:43.764Z,11.27
2023-01-28T23:47:11.360Z,11.77
2023-01-28T23:49:39.251Z,11.37
2023-01-28T23:52:07.370Z,11.07
2023-01-28T23:54:35.204Z,11.80
2023-01-28T23:57:02.611Z,11.57
2023-01-28T23:59:29.581Z,11.77
